Time;durP1;ratioP1;P1;durP2;ratioP2;P2;SDS_P1;SDS_P2;PMS_P1;PMS_P2;Temp;Humidity;BMP_temperature;BMP_pressure;BME280_temperature;BME280_humidity;BME280_pressure;Samples;Min_cycle;Max_cycle;Signal;HPM_P1;HPM_P2
2022/11/23 00:01:23;;;;;;;;;2.50;2.50;;;;;8.99;66.72;99642.06;6160833;23;45598;-86
2022/11/23 00:03:51;;;;;;;;;5.00;4.00;;;;;8.95;66.45;99627.22;6185955;23;46335;-88
2022/11/23 00:06:17;;;;;;;;;3.00;1.25;;;;;8.99;66.67;99636.81;6163106;23;45308;-90
2022/11/23 00:08:43;;;;;;;;;5.50;3.50;;;;;8.89;66.45;99622.09;6165953;23;45123;-88
2022/11/23 00:11:09;;;;;;;;;3.00;3.00;;;;;8.91;66.50;99633.44;6159267;23;45674;-90
2022/11/23 00:13:35;;;;;;;;;3.75;3.00;;;;;8.89;66.60;99631.72;6161691;23;48784;-86
2022/11/23 00:16:05;;;;;;;;;2.00;2.00;;;;;8.91;66.98;99651.81;6162527;23;45344;-90
2022/11/23 00:18:30;;;;;;;;;2.75;2.75;;;;;8.73;67.32;99616.19;6182865;23;45402;-83
2022/11/23 00:20:56;;;;;;;;;4.00;4.00;;;;;8.79;67.03;99625.72;6186517;23;45295;-85
2022/11/23 00:23:21;;;;;;;;;1.75;1.75;;;;;8.69;67.14;99625.00;6161358;23;46701;-85
2022/11/23 00:25:46;;;;;;;;;4.25;1.75;;;;;8.77;67.43;99644.13;6188502;23;45268;-84
2022/11/23 00:28:12;;;;;;;;;6.00;4.25;;;;;8.69;67.24;99635.50;6163228;23;45255;-84
2022/11/23 00:30:37;;;;;;;;;6.00;3.00;;;;;8.72;67.61;99645.09;6164334;23;45229;-85
2022/11/23 00:33:02;;;;;;;;;4.25;2.75;;;;;8.62;67.88;99633.84;6191386;23;47162;-84
2022/11/23 00:35:28;;;;;;;;;6.00;2.50;;;;;8.71;67.65;99651.22;6166015;23;45204;-84
2022/11/23 00:37:53;;;;;;;;;1.00;1.00;;;;;8.70;68.06;99649.50;6165415;23;45476;-84
2022/11/23 00:40:18;;;;;;;;;5.50;2.00;;;;;8.65;68.07;99635.56;6165314;23;45485;-84
2022/11/23 00:42:44;;;;;;;;;2.25;1.75;;;;;8.70;68.06;99650.34;6169119;23;46876;-84
2022/11/23 00:45:09;;;;;;;;;3.75;3.00;;;;;8.64;68.22;99639.94;6192086;23;45329;-84
2022/11/23 00:47:34;;;;;;;;;4.00;3.25;;;;;8.67;68.69;99644.28;6164772;23;45360;-84
2022/11/23 00:50:01;;;;;;;;;2.00;2.00;;;;;8.65;68.16;99636.44;6189688;23;45565;-84
2022/11/23 00:52:26;;;;;;;;;6.00;3.00;;;;;8.66;68.25;99630.31;6166682;23;45453;-84
2022/11/23 00:54:51;;;;;;;;;2.50;1.25;;;;;8.68;68.36;99633.75;6190724;23;45373;-83
2022/11/23 00:57:17;;;;;;;;;4.00;4.00;;;;;8.69;68.71;99632.88;6194667;23;45298;-84
2022/11/23 00:59:42;;;;;;;;;2.00;2.00;;;;;8.61;68.46;99614.63;6192904;23;45433;-83
2022/11/23 01:02:07;;;;;;;;;5.50;3.75;;;;;8.59;68.40;99611.16;6191914;23;46377;-84
2022/11/23 01:04:33;;;;;;;;;4.75;2.50;;;;;8.63;68.71;99617.22;6189631;23;45269;-84
2022/11/23 01:06:58;;;;;;;;;8.25;4.00;;;;;8.44;68.76;99598.22;6163252;23;45317;-84
2022/11/23 01:09:25;;;;;;;;;7.75;4.75;;;;;8.52;68.72;99619.97;6164374;23;45179;-84
2022/11/23 01:11:54;;;;;;;;;5.75;4.75;;;;;8.43;68.87;99609.63;6188874;23;48256;-83
2022/11/23 01:14:21;;;;;;;;;4.75;3.75;;;;;8.38;69.08;99606.16;6161084;23;45299;-84
2022/11/23 01:16:47;;;;;;;;;3.50;2.00;;;;;8.41;68.93;99621.88;6187845;23;45269;-84
2022/11/23 01:19:15;;;;;;;;;5.25;3.00;;;;;8.35;69.47;99614.94;6187235;23;45446;-85
2022/11/23 01:21:42;;;;;;;;;3.50;1.25;;;;;8.43;69.64;99620.13;6160299;23;47441;-83
2022/11/23 01:24:19;;;;;;;;;4.25;2.00;;;;;8.32;69.24;99604.50;6187169;23;45133;-84
2022/11/23 01:26:45;;;;;;;;;4.00;3.00;;;;;8.30;69.04;99598.38;6187533;23;45346;-83
2022/11/23 01:29:11;;;;;;;;;4.50;4.00;;;;;8.27;69.33;99587.09;6186545;23;45493;-84
2022/11/23 01:31:37;;;;;;;;;3.75;2.75;;;;;8.33;69.59;99592.25;6159254;23;48280;-84
2022/11/23 01:34:03;;;;;;;;;4.00;4.00;;;;;8.21;69.76;99571.44;6159317;23;45253;-84
2022/11/23 01:36:32;;;;;;;;;3.00;3.00;;;;;8.29;69.80;99588.81;6184364;23;45290;-84
2022/11/23 01:38:59;;;;;;;;;6.00;3.00;;;;;8.21;69.92;99572.31;6159422;23;46044;-84
2022/11/23 01:41:28;;;;;;;;;2.25;2.25;;;;;8.23;69.99;99569.66;6159717;23;46493;-84
2022/11/23 01:43:54;;;;;;;;;3.00;3.00;;;;;8.24;69.96;99581.88;6159181;23;45266;-84
2022/11/23 01:46:19;;;;;;;;;4.25;3.00;;;;;8.16;70.16;99574.97;6185074;23;45111;-84
2022/11/23 01:48:53;;;;;;;;;6.25;4.00;;;;;8.24;69.93;99576.66;6159730;23;45414;-84
2022/11/23 01:51:28;;;;;;;;;5.25;4.00;;;;;8.20;70.05;99570.56;6184779;23;47652;-84
2022/11/23 01:53:59;;;;;;;;;3.00;2.50;;;;;8.13;70.22;99566.31;6159491;23;45320;-84
2022/11/23 01:56:29;;;;;;;;;3.00;3.00;;;;;8.21;70.25;99579.31;6187380;23;45347;-84
2022/11/23 01:59:01;;;;;;;;;6.50;4.50;;;;;8.13;70.36;99567.16;6186585;23;45227;-84
2022/11/23 02:01:26;;;;;;;;;5.00;2.00;;;;;8.08;70.49;99555.88;6184172;23;47184;-84
2022/11/23 02:03:55;;;;;;;;;3.00;3.00;;;;;8.05;70.76;99555.03;6186372;23;45267;-83
2022/11/23 02:06:22;;;;;;;;;3.25;3.25;;;;;8.10;70.80;99563.69;6186617;23;45272;-84
2022/11/23 02:08:48;;;;;;;;;2.00;2.00;;;;;8.09;70.53;99562.81;6184619;23;45589;-84
2022/11/23 02:11:15;;;;;;;;;3.50;3.00;;;;;8.11;70.95;99568.06;6186821;23;45166;-84
2022/11/23 02:13:43;;;;;;;;;8.50;5.00;;;;;8.05;71.07;99557.66;6186597;23;45212;-85
2022/11/23 02:16:10;;;;;;;;;3.25;2.50;;;;;8.04;70.89;99554.16;6159771;23;45292;-84
2022/11/23 02:18:38;;;;;;;;;8.00;4.75;;;;;8.09;70.89;99568.06;6160106;23;46158;-84
2022/11/23 02:21:04;;;;;;;;;3.75;3.00;;;;;8.08;71.01;99561.09;6186544;23;45347;-85
2022/11/23 02:23:53;;;;;;;;;4.50;4.50;;;;;8.01;71.01;99554.19;6187019;23;45365;-84
2022/11/23 02:26:26;;;;;;;;;7.50;6.00;;;;;8.08;71.35;99560.25;6186518;23;45394;-84
2022/11/23 02:29:05;;;;;;;;;4.00;4.00;;;;;8.05;71.49;99557.66;6186860;23;45383;-84
2022/11/23 02:31:30;;;;;;;;;4.50;3.25;;;;;7.94;71.72;99545.56;6159363;23;48227;-84
2022/11/23 02:33:56;;;;;;;;;2.75;1.75;;;;;8.02;71.47;99557.69;6159926;23;45893;-84
2022/11/23 02:36:36;;;;;;;;;5.25;4.00;;;;;8.05;71.68;99552.44;6159390;23;45240;-84
2022/11/23 02:39:20;;;;;;;;;4.00;4.00;;;;;8.05;71.96;99560.28;6159090;23;45277;-83
2022/11/23 02:41:51;;;;;;;;;4.00;4.00;;;;;8.03;71.92;99556.81;6186439;23;46522;-83
2022/11/23 02:44:54;;;;;;;;;5.00;4.00;;;;;8.09;71.67;99556.72;6159086;23;46121;-84
2022/11/23 02:47:19;;;;;;;;;9.00;6.50;;;;;7.99;71.92;99540.25;6186025;23;45157;-84
2022/11/23 02:49:46;;;;;;;;;7.50;7.00;;;;;8.11;71.97;99549.72;6187344;23;45218;-84
2022/11/23 02:52:11;;;;;;;;;9.75;8.50;;;;;8.09;71.96;99548.84;6159215;23;47340;-84
2022/11/23 02:54:37;;;;;;;;;4.00;4.00;;;;;8.05;72.08;99532.31;6160705;23;46095;-84
2022/11/23 02:57:04;;;;;;;;;7.75;7.00;;;;;8.10;72.49;99538.38;6160807;23;45294;-85
2022/11/23 02:59:31;;;;;;;;;12.25;8.25;;;;;8.05;72.46;99521.84;6185564;23;45456;-85
2022/11/23 03:02:00;;;;;;;;;9.50;8.75;;;;;8.10;72.35;99524.38;6160184;23;47349;-83
2022/11/23 03:04:25;;;;;;;;;8.00;7.00;;;;;8.10;72.14;99524.38;6186533;23;45162;-84
2022/11/23 03:06:51;;;;;;;;;8.25;8.25;;;;;8.12;72.49;99512.13;6160406;23;45215;-84
2022/11/23 03:09:16;;;;;;;;;6.75;6.50;;;;;8.18;72.76;99527.78;6185566;23;45461;-84
2022/11/23 03:11:42;;;;;;;;;9.25;7.00;;;;;8.23;72.59;99525.06;6187539;23;46113;-84
2022/11/23 03:14:07;;;;;;;;;10.75;9.25;;;;;8.16;72.38;99514.69;6187770;23;45236;-84
2022/11/23 03:16:33;;;;;;;;;5.50;5.00;;;;;8.17;72.00;99505.91;6161061;23;45178;-83
2022/11/23 03:18:58;;;;;;;;;10.50;8.50;;;;;8.21;72.19;99498.03;6187989;23;45145;-84
2022/11/23 03:21:24;;;;;;;;;6.75;4.75;;;;;8.22;72.60;99512.88;6187568;23;45381;-84
2022/11/23 03:23:49;;;;;;;;;9.50;4.50;;;;;8.16;72.24;99503.34;6160818;23;45274;-86
2022/11/23 03:26:15;;;;;;;;;8.75;7.00;;;;;8.10;72.65;99498.16;6160639;23;45508;-84
2022/11/23 03:28:40;;;;;;;;;8.50;7.25;;;;;8.13;72.81;99499.00;6186619;23;45462;-85
2022/11/23 03:31:06;;;;;;;;;5.50;4.00;;;;;8.11;72.86;99495.53;6160338;23;47951;-85
2022/11/23 03:33:31;;;;;;;;;6.75;4.75;;;;;8.09;73.06;99485.97;6187667;23;45308;-84
2022/11/23 03:35:57;;;;;;;;;8.25;5.00;;;;;8.23;73.12;99510.22;6187562;23;45192;-84
2022/11/23 03:38:22;;;;;;;;;7.75;7.00;;;;;8.18;73.25;99484.09;6161328;23;45325;-84
2022/11/23 03:40:47;;;;;;;;;4.75;4.00;;;;;8.28;73.15;99497.91;6161033;23;48227;-84
2022/11/23 03:43:14;;;;;;;;;7.25;7.25;;;;;8.31;73.20;99481.25;6160667;23;45752;-84
2022/11/23 03:45:40;;;;;;;;;9.25;7.00;;;;;8.32;73.18;99473.38;6160805;23;45180;-85
2022/11/23 03:48:06;;;;;;;;;7.50;6.00;;;;;8.40;73.36;99478.56;6185599;23;45354;-83
2022/11/23 03:50:31;;;;;;;;;7.25;7.25;;;;;8.36;73.17;99469.81;6185513;23;47911;-83
2022/11/23 03:52:58;;;;;;;;;6.00;6.00;;;;;8.46;73.21;99481.06;6185773;23;45747;-84
2022/11/23 03:55:24;;;;;;;;;6.00;4.50;;;;;8.45;73.35;99489.84;6160733;23;45196;-83
2022/11/23 03:57:50;;;;;;;;;6.75;6.25;;;;;8.37;73.47;99461.06;6185622;23;45354;-84
2022/11/23 04:00:16;;;;;;;;;7.25;4.75;;;;;8.50;73.27;99480.16;6186881;23;45465;-84
2022/11/23 04:02:42;;;;;;;;;8.00;8.00;;;;;8.48;73.24;99474.06;6187377;23;45320;-85
2022/11/23 04:05:08;;;;;;;;;4.25;4.25;;;;;8.57;73.41;99481.75;6187630;23;45335;-84
2022/11/23 04:07:34;;;;;;;;;8.75;5.25;;;;;8.62;73.52;99479.06;6159723;23;45385;-83
2022/11/23 04:09:59;;;;;;;;;5.25;5.00;;;;;8.62;73.40;99471.19;6159868;23;48198;-83
2022/11/23 04:12:25;;;;;;;;;8.00;6.75;;;;;8.56;73.59;99452.94;6186658;23;45226;-84
2022/11/23 04:14:51;;;;;;;;;6.50;4.00;;;;;8.63;73.75;99464.19;6187033;23;45226;-84
2022/11/23 04:17:16;;;;;;;;;5.00;5.00;;;;;8.69;73.72;99469.34;6160100;23;45408;-84
2022/11/23 04:19:41;;;;;;;;;5.75;5.00;;;;;8.72;73.55;99474.56;6159825;23;47305;-84
2022/11/23 04:22:07;;;;;;;;;8.00;4.00;;;;;8.69;73.51;99461.50;6160386;23;45209;-84
2022/11/23 04:24:32;;;;;;;;;5.00;4.00;;;;;8.78;73.52;99475.28;6187526;23;46041;-84
2022/11/23 04:26:57;;;;;;;;;4.00;4.00;;;;;8.73;74.19;99468.41;6187311;23;45121;-83
2022/11/23 04:29:23;;;;;;;;;6.75;5.00;;;;;8.72;73.74;99467.53;6160149;23;48635;-84
2022/11/23 04:31:48;;;;;;;;;6.00;5.25;;;;;8.72;73.99;99461.44;6186955;23;45177;-84
2022/11/23 04:34:13;;;;;;;;;6.25;5.25;;;;;8.78;73.72;99456.06;6185795;23;45387;-84
2022/11/23 04:36:39;;;;;;;;;10.75;5.25;;;;;8.79;73.62;99456.06;6158235;23;45420;-84
2022/11/23 04:39:05;;;;;;;;;4.50;4.50;;;;;8.74;73.79;99444.78;6158599;23;46717;-84
2022/11/23 04:41:30;;;;;;;;;7.00;5.75;;;;;8.80;73.86;99444.66;6185190;23;45429;-84
2022/11/23 04:43:55;;;;;;;;;6.50;4.25;;;;;8.86;73.73;99451.56;6185128;23;45370;-84
2022/11/23 04:46:21;;;;;;;;;5.00;5.00;;;;;8.83;73.78;99444.59;6184516;23;45305;-84
2022/11/23 04:48:46;;;;;;;;;4.00;3.25;;;;;8.82;74.07;99435.00;6184525;23;47256;-83
2022/11/23 04:51:12;;;;;;;;;4.50;4.50;;;;;8.91;73.68;99443.59;6187112;23;45384;-83
2022/11/23 04:53:37;;;;;;;;;4.25;4.00;;;;;8.86;74.08;99427.06;6187594;23;45349;-84
2022/11/23 04:56:03;;;;;;;;;3.00;3.00;;;;;8.89;74.13;99438.38;6186809;23;45349;-84
2022/11/23 04:58:28;;;;;;;;;5.50;5.50;;;;;8.87;73.94;99427.03;6159754;23;47518;-84
2022/11/23 05:00:54;;;;;;;;;6.25;5.00;;;;;8.95;73.85;99438.25;6187015;23;45275;-83
2022/11/23 05:03:19;;;;;;;;;3.75;3.25;;;;;8.92;74.00;99421.69;6159249;23;45217;-84
2022/11/23 05:05:45;;;;;;;;;5.50;5.50;;;;;8.96;73.73;99426.88;6186749;23;45586;-84
2022/11/23 05:08:10;;;;;;;;;8.00;6.25;;;;;8.91;73.88;99425.22;6186904;23;46019;-83
2022/11/23 05:10:36;;;;;;;;;4.25;4.25;;;;;8.86;73.29;99413.94;6159742;23;45171;-83
2022/11/23 05:13:02;;;;;;;;;7.50;6.25;;;;;8.86;73.83;99411.31;6160262;23;45283;-83
2022/11/23 05:15:28;;;;;;;;;4.00;3.50;;;;;8.82;73.58;99414.00;6187422;23;45404;-83
2022/11/23 05:17:59;;;;;;;;;9.00;6.50;;;;;8.86;73.74;99422.69;6159758;23;46965;-83
2022/11/23 05:20:24;;;;;;;;;10.00;7.75;;;;;8.87;73.96;99424.41;6187398;23;45158;-84
2022/11/23 05:22:49;;;;;;;;;8.25;5.75;;;;;8.81;73.93;99428.00;6160270;23;45222;-83
2022/11/23 05:25:15;;;;;;;;;7.00;6.00;;;;;8.76;73.81;99418.50;6187006;23;45383;-83
2022/11/23 05:27:40;;;;;;;;;6.75;5.25;;;;;8.83;74.32;99441.13;6159936;23;46867;-84
2022/11/23 05:30:06;;;;;;;;;8.00;5.25;;;;;8.82;73.96;99442.88;6159811;23;45169;-83
2022/11/23 05:32:32;;;;;;;;;7.00;6.00;;;;;8.76;73.95;99432.47;6186915;23;45366;-83
2022/11/23 05:34:57;;;;;;;;;4.00;4.00;;;;;8.83;73.86;99446.34;6187690;23;45113;-83
2022/11/23 05:37:22;;;;;;;;;5.25;5.25;;;;;8.87;74.01;99449.78;6160140;23;46617;-83
2022/11/23 05:39:48;;;;;;;;;7.00;5.50;;;;;8.88;73.76;99447.16;6187297;23;45228;-84
2022/11/23 05:42:13;;;;;;;;;7.25;6.25;;;;;8.88;74.07;99443.66;6185216;23;45166;-83
2022/11/23 05:44:38;;;;;;;;;4.75;4.75;;;;;8.90;74.12;99439.22;6186134;23;45766;-83
2022/11/23 05:47:03;;;;;;;;;4.25;4.25;;;;;8.84;74.31;99432.34;6187511;23;45298;-83
2022/11/23 05:49:29;;;;;;;;;5.75;5.75;;;;;8.84;73.79;99429.72;6159440;23;45362;-83
2022/11/23 05:51:54;;;;;;;;;5.50;5.25;;;;;8.87;73.87;99434.91;6187286;23;45325;-83
2022/11/23 05:54:20;;;;;;;;;6.25;5.50;;;;;8.89;74.13;99437.50;6160369;23;45516;-83
2022/11/23 05:56:45;;;;;;;;;5.50;4.75;;;;;8.83;74.30;99422.75;6160100;23;47478;-82
2022/11/23 05:59:11;;;;;;;;;4.75;3.50;;;;;8.86;74.30;99416.56;6187104;23;45355;-83
2022/11/23 06:01:36;;;;;;;;;5.00;4.75;;;;;8.80;74.47;99405.28;6160348;23;45356;-83
2022/11/23 06:04:02;;;;;;;;;4.00;4.00;;;;;8.93;74.17;99424.31;6186531;23;45253;-83
2022/11/23 06:06:28;;;;;;;;;5.25;4.25;;;;;8.90;74.27;99410.34;6159447;23;47633;-83
2022/11/23 06:08:53;;;;;;;;;10.50;8.00;;;;;8.96;74.22;99418.16;6187037;23;45323;-83
2022/11/23 06:11:19;;;;;;;;;5.75;5.00;;;;;8.98;74.41;99422.47;6184808;23;45886;-82
2022/11/23 06:13:48;;;;;;;;;8.25;5.25;;;;;8.94;74.26;99407.66;6187500;23;45238;-83
2022/11/23 06:16:13;;;;;;;;;5.50;5.50;;;;;9.01;74.36;99417.16;6186594;23;45266;-83
2022/11/23 06:18:39;;;;;;;;;10.75;8.00;;;;;8.96;74.34;99410.28;6163710;23;45133;-83
2022/11/23 06:21:04;;;;;;;;;8.25;6.50;;;;;8.91;74.56;99399.84;6162094;23;45340;-83
2022/11/23 06:23:29;;;;;;;;;5.50;5.00;;;;;9.01;74.32;99403.19;6188424;23;45199;-83
2022/11/23 06:25:59;;;;;;;;;5.50;5.50;;;;;9.03;74.41;99409.25;6191687;23;45321;-82
2022/11/23 06:28:25;;;;;;;;;6.75;6.25;;;;;9.09;74.49;99414.41;6168582;23;45224;-81
2022/11/23 06:30:51;;;;;;;;;5.00;5.00;;;;;9.05;74.54;99399.56;6197044;23;45275;-83
2022/11/23 06:33:16;;;;;;;;;9.00;5.50;;;;;9.11;74.39;99401.22;6171654;23;45241;-82
2022/11/23 06:35:42;;;;;;;;;7.75;5.75;;;;;9.09;74.59;99395.13;6203813;23;46121;-82
2022/11/23 06:38:07;;;;;;;;;5.25;5.25;;;;;9.10;74.63;99378.50;6206711;23;45253;-81
2022/11/23 06:40:33;;;;;;;;;6.75;5.25;;;;;9.12;74.53;99384.59;6206008;23;44652;-81
2022/11/23 06:42:59;;;;;;;;;4.25;4.25;;;;;9.14;74.71;99388.91;6204914;23;44943;-83
2022/11/23 06:45:24;;;;;;;;;7.25;7.25;;;;;9.15;74.56;99374.03;6177028;23;47214;-83
2022/11/23 06:47:49;;;;;;;;;5.00;4.75;;;;;9.05;74.69;99360.19;6195788;23;45722;-82
2022/11/23 06:50:15;;;;;;;;;7.75;4.75;;;;;9.11;74.84;99356.59;6193096;23;45232;-82
2022/11/23 06:52:40;;;;;;;;;10.00;8.50;;;;;9.13;74.80;99360.91;6190075;23;45238;-83
2022/11/23 06:55:06;;;;;;;;;5.00;5.00;;;;;9.04;74.96;99346.22;6191561;23;45325;-83
2022/11/23 06:57:31;;;;;;;;;10.50;8.50;;;;;9.14;74.89;99359.16;6196737;23;45689;-83
2022/11/23 06:59:57;;;;;;;;;9.75;7.25;;;;;9.17;74.97;99357.34;6208275;23;44656;-83
2022/11/23 07:02:22;;;;;;;;;9.75;6.00;;;;;9.16;74.85;99354.72;6176493;23;45243;-82
2022/11/23 07:04:50;;;;;;;;;8.00;8.00;;;;;9.21;75.11;99361.63;6206219;22;45033;-84
2022/11/23 07:07:15;;;;;;;;;11.25;9.25;;;;;9.21;75.17;99351.13;6197474;23;45171;-82
2022/11/23 07:09:40;;;;;;;;;9.50;8.25;;;;;9.16;75.28;99339.84;6184073;22;45271;-84
2022/11/23 07:12:06;;;;;;;;;10.25;5.50;;;;;9.23;75.15;99336.19;6207482;23;45095;-84
2022/11/23 07:14:31;;;;;;;;;7.75;7.25;;;;;9.26;74.78;99348.41;6170981;23;48186;-84
2022/11/23 07:16:57;;;;;;;;;8.00;8.00;;;;;9.16;74.76;99321.47;6187927;23;45205;-82
2022/11/23 07:19:22;;;;;;;;;9.25;8.50;;;;;9.24;74.94;99344.94;6187274;23;45186;-85
2022/11/23 07:21:48;;;;;;;;;7.25;7.25;;;;;9.25;74.78;99360.69;6159700;23;45194;-84
2022/11/23 07:24:13;;;;;;;;;6.50;6.50;;;;;9.30;74.74;99363.19;6160708;23;47176;-84
2022/11/23 07:26:39;;;;;;;;;10.50;6.50;;;;;9.37;74.84;99362.16;6187469;23;45170;-84
2022/11/23 07:29:04;;;;;;;;;6.50;5.75;;;;;9.31;74.51;99345.69;6185601;23;45521;-83
2022/11/23 07:31:29;;;;;;;;;11.50;9.00;;;;;9.31;74.54;99351.81;6186636;23;45371;-83
2022/11/23 07:33:55;;;;;;;;;5.25;5.25;;;;;9.35;74.82;99358.69;6186745;23;45351;-82
2022/11/23 07:36:20;;;;;;;;;6.00;4.75;;;;;9.42;74.33;99365.56;6159498;23;45342;-83
2022/11/23 07:38:46;;;;;;;;;10.50;6.75;;;;;9.43;74.27;99363.78;6186605;23;45368;-82
2022/11/23 07:41:11;;;;;;;;;5.00;5.00;;;;;9.46;74.16;99359.38;6160165;23;45265;-81
2022/11/23 07:43:36;;;;;;;;;5.00;5.00;;;;;9.54;74.23;99355.69;6187662;23;45379;-81
2022/11/23 07:46:01;;;;;;;;;6.00;5.00;;;;;9.56;74.23;99361.78;6187213;23;45309;-82
2022/11/23 07:48:27;;;;;;;;;4.00;4.00;;;;;9.56;73.88;99353.91;6188629;23;45648;-82
2022/11/23 07:50:53;;;;;;;;;5.25;5.25;;;;;9.61;73.62;99357.28;6186575;23;45245;-82
2022/11/23 07:53:19;;;;;;;;;4.50;4.00;;;;;9.65;73.56;99366.81;6187353;23;45339;-84
2022/11/23 07:55:45;;;;;;;;;6.50;5.00;;;;;9.64;73.66;99346.69;6160311;23;45179;-81
2022/11/23 07:58:11;;;;;;;;;5.00;4.00;;;;;9.65;73.70;99351.03;6187574;23;45501;-80
2022/11/23 08:00:37;;;;;;;;;11.00;5.50;;;;;9.72;73.69;99358.75;6183793;23;45178;-80
2022/11/23 08:03:02;;;;;;;;;6.25;5.25;;;;;9.77;73.65;99365.69;6186680;23;45364;-81
2022/11/23 08:05:31;;;;;;;;;6.25;5.00;;;;;9.70;73.46;99362.31;6186574;23;45139;-82
2022/11/23 08:07:58;;;;;;;;;5.75;3.75;;;;;9.66;73.38;99358.91;6160001;23;45349;-83
2022/11/23 08:10:25;;;;;;;;;4.50;4.50;;;;;9.67;73.92;99367.66;6159360;23;45432;-82
2022/11/23 08:12:50;;;;;;;;;5.00;4.00;;;;;9.57;73.81;99353.88;6186462;23;45494;-83
2022/11/23 08:15:15;;;;;;;;;9.75;6.25;;;;;9.62;73.94;99372.13;6186660;23;45149;-84
2022/11/23 08:17:41;;;;;;;;;5.00;5.00;;;;;9.58;73.95;99365.25;6160215;23;45167;-83
2022/11/23 08:20:06;;;;;;;;;6.75;6.75;;;;;9.53;73.85;99361.84;6184587;23;45468;-84
2022/11/23 08:22:32;;;;;;;;;6.50;4.00;;;;;9.46;74.29;99342.72;6183682;23;47023;-86
2022/11/23 08:24:57;;;;;;;;;4.75;4.75;;;;;9.48;74.33;99341.78;6159573;23;45771;-85
2022/11/23 08:27:22;;;;;;;;;5.25;5.25;;;;;9.45;73.97;99333.97;6158567;23;45815;-85
2022/11/23 08:29:48;;;;;;;;;9.50;6.00;;;;;9.44;74.11;99324.38;6186703;23;45181;-87
2022/11/23 08:32:13;;;;;;;;;5.00;5.00;;;;;9.58;74.21;99328.47;6187365;23;45261;-85
2022/11/23 08:34:41;;;;;;;;;6.00;5.00;;;;;9.58;73.96;99321.44;6160453;23;45499;-84
2022/11/23 08:37:07;;;;;;;;;4.50;4.50;;;;;9.61;74.20;99315.25;6159986;23;45449;-85
2022/11/23 08:39:32;;;;;;;;;5.50;5.50;;;;;9.62;74.29;99303.81;6187069;23;45197;-86
2022/11/23 08:41:57;;;;;;;;;9.25;7.75;;;;;9.63;74.04;99285.41;6185013;23;47815;-83
2022/11/23 08:44:23;;;;;;;;;4.50;4.50;;;;;9.65;73.84;99275.75;6159037;23;45407;-84
2022/11/23 08:46:48;;;;;;;;;5.75;5.75;;;;;9.67;73.35;99265.16;6184976;23;45270;-85
2022/11/23 08:49:13;;;;;;;;;5.25;5.25;;;;;9.64;73.89;99242.47;6159810;23;45384;-85
2022/11/23 08:51:39;;;;;;;;;5.00;5.00;;;;;9.67;73.88;99249.41;6159977;23;47934;-85
2022/11/23 08:54:04;;;;;;;;;2.00;2.00;;;;;9.71;73.67;99258.97;6186921;23;45205;-85
2022/11/23 08:56:29;;;;;;;;;4.25;3.25;;;;;9.69;73.64;99264.22;6187426;23;45297;-85
2022/11/23 08:58:55;;;;;;;;;3.00;3.00;;;;;9.64;73.52;99273.13;6158572;23;45199;-85
2022/11/23 09:01:20;;;;;;;;;5.25;4.75;;;;;9.57;73.40;99254.03;6184109;23;48009;-85
2022/11/23 09:03:46;;;;;;;;;5.25;5.00;;;;;9.58;73.24;99255.75;6158747;23;45190;-84
2022/11/23 09:06:11;;;;;;;;;4.00;4.00;;;;;9.61;73.59;99274.06;6186707;23;45218;-85
2022/11/23 09:08:37;;;;;;;;;4.00;4.00;;;;;9.57;73.59;99261.91;6159292;23;45425;-84
2022/11/23 09:11:05;;;;;;;;;3.50;2.75;;;;;9.46;73.62;99235.91;6159230;23;46980;-84
2022/11/23 09:13:31;;;;;;;;;5.00;4.50;;;;;9.54;73.81;99240.94;6185269;23;45873;-87
2022/11/23 09:16:01;;;;;;;;;2.00;2.00;;;;;9.55;73.92;99240.06;6187076;23;45280;-83
2022/11/23 09:18:27;;;;;;;;;5.00;4.00;;;;;9.46;74.07;99248.16;6186226;23;45157;-82
2022/11/23 09:20:53;;;;;;;;;4.50;4.50;;;;;9.55;74.02;99263.72;6186181;23;45372;-83
2022/11/23 09:23:18;;;;;;;;;2.75;2.75;;;;;9.48;74.03;99256.88;6186465;23;45238;-82
2022/11/23 09:25:47;;;;;;;;;4.50;3.25;;;;;9.41;74.10;99237.78;6159992;23;45243;-81
2022/11/23 09:28:13;;;;;;;;;3.25;3.25;;;;;9.54;74.08;99269.84;6186515;23;45289;-81
2022/11/23 09:30:39;;;;;;;;;4.50;4.00;;;;;9.52;74.24;99262.94;6159014;23;47132;-81
2022/11/23 09:33:07;;;;;;;;;5.25;4.50;;;;;9.50;74.39;99263.81;6186323;23;45393;-82
2022/11/23 09:35:32;;;;;;;;;3.50;3.50;;;;;9.48;74.76;99252.47;6186378;23;45178;-83
2022/11/23 09:37:58;;;;;;;;;4.00;4.00;;;;;9.47;74.61;99250.75;6186305;23;45203;-82
2022/11/23 09:40:31;;;;;;;;;3.75;3.75;;;;;9.54;74.72;99259.34;6186369;23;46368;-80
2022/11/23 09:43:17;;;;;;;;;1.75;1.75;;;;;9.58;74.52;99266.25;6159431;23;45175;-79
2022/11/23 09:45:53;;;;;;;;;2.50;2.00;;;;;9.59;75.06;99270.59;6133522;23;45272;-79
2022/11/23 09:48:53;;;;;;;;;9.25;4.75;;;;;9.60;74.71;99269.72;6158746;23;45199;-78
2022/11/23 09:51:21;;;;;;;;;5.75;4.75;;;;;9.52;74.68;99234.91;6185606;23;45403;-79
2022/11/23 09:53:46;;;;;;;;;5.75;3.75;;;;;9.60;74.68;99245.22;6186424;23;45172;-81
2022/11/23 09:56:19;;;;;;;;;4.50;3.75;;;;;9.60;75.13;99242.59;6159995;23;45210;-84
2022/11/23 09:58:45;;;;;;;;;4.00;4.00;;;;;9.58;74.64;99240.00;6160309;23;45132;-83
2022/11/23 10:01:13;;;;;;;;;3.00;3.00;;;;;9.58;75.09;99233.88;6186532;23;46522;-86
2022/11/23 10:03:41;;;;;;;;;5.00;5.00;;;;;9.58;75.13;99234.72;6181738;23;45810;-87
2022/11/23 10:06:24;;;;;;;;;5.50;5.25;;;;;9.66;75.18;99242.44;6182767;23;45341;-87
2022/11/23 10:09:27;;;;;;;;;6.00;4.00;;;;;9.71;75.11;99238.78;6158984;23;45444;-88
2022/11/23 10:12:17;;;;;;;;;5.25;4.75;;;;;9.62;75.46;99227.63;6188081;23;45546;-89
2022/11/23 10:15:02;;;;;;;;;4.25;4.00;;;;;9.60;75.58;99235.56;6187795;23;45379;-91
2022/11/23 10:17:52;;;;;;;;;3.75;3.00;;;;;9.70;75.49;99255.47;6159750;23;45414;-87
2022/11/23 10:20:55;;;;;;;;;5.00;4.00;;;;;9.63;75.59;99240.75;6157648;23;45685;-85
2022/11/23 10:23:46;;;;;;;;;4.00;3.00;;;;;9.68;75.50;99238.88;6156570;23;46896;-82
2022/11/23 10:26:16;;;;;;;;;3.00;3.00;;;;;9.64;75.80;99244.22;6160548;23;45440;-83
2022/11/23 10:28:44;;;;;;;;;3.00;3.00;;;;;9.67;76.06;99258.16;6158857;23;45192;-87
2022/11/23 10:31:13;;;;;;;;;3.00;3.00;;;;;9.69;76.05;99274.75;6187679;23;45236;-85
2022/11/23 10:33:48;;;;;;;;;11.50;7.00;;;;;9.65;75.93;99266.97;6185331;23;46334;-85
2022/11/23 10:36:15;;;;;;;;;5.50;5.50;;;;;9.74;76.44;99293.03;6182907;23;45997;-87
2022/11/23 10:38:59;;;;;;;;;5.00;5.00;;;;;9.71;76.50;99272.09;6184764;23;45315;-86
2022/11/23 10:41:25;;;;;;;;;3.25;3.00;;;;;9.75;76.45;99280.75;6185232;23;45275;-85
2022/11/23 10:43:59;;;;;;;;;2.25;2.25;;;;;9.79;76.57;99280.66;6184980;23;46001;-86
2022/11/23 10:46:35;;;;;;;;;2.00;2.00;;;;;9.81;76.43;99270.97;6157019;23;45272;-83
2022/11/23 10:49:20;;;;;;;;;3.00;2.00;;;;;9.86;76.32;99276.09;6185271;23;45273;-83
2022/11/23 10:52:23;;;;;;;;;1.33;1.00;;;;;9.91;76.41;99282.09;6183935;23;45428;-86
2022/11/23 10:54:54;;;;;;;;;0.00;0.00;;;;;9.84;76.24;99260.38;6156456;23;46698;-83
2022/11/23 10:57:44;;;;;;;;;1.33;1.33;;;;;9.94;76.59;99267.16;6157546;23;45558;-83
2022/11/23 11:00:09;;;;;;;;;1.00;1.00;;;;;10.05;76.75;99282.66;6180866;23;45234;-87
2022/11/23 11:02:46;;;;;;;;;2.33;1.33;;;;;10.12;76.66;99284.19;6157610;23;45219;-85
2022/11/23 11:05:27;;;;;;;;;1.33;1.33;;;;;10.19;76.35;99277.03;6184567;23;45365;-82
2022/11/23 11:07:54;;;;;;;;;0.67;0.67;;;;;10.16;76.50;99258.72;6155454;23;45388;-86
2022/11/23 11:10:42;;;;;;;;;1.00;1.00;;;;;10.37;76.51;99283.59;6185544;23;45375;-85
2022/11/23 11:13:40;;;;;;;;;1.25;1.00;;;;;10.45;76.49;99291.28;6161583;23;45698;-87
2022/11/23 11:16:21;;;;;;;;;1.00;0.00;;;;;10.38;76.50;99283.56;6158312;23;48276;-85
2022/11/23 11:18:47;;;;;;;;;2.00;2.00;;;;;10.47;76.44;99300.00;6161629;23;45310;-90
2022/11/23 11:21:29;;;;;;;;;0.00;0.00;;;;;10.45;76.49;99288.66;6162872;23;45463;-89
2022/11/23 11:23:58;;;;;;;;;0.67;0.67;;;;;10.49;76.57;99293.81;6162717;23;45312;-88
2022/11/23 11:26:29;;;;;;;;;1.33;1.33;;;;;10.66;76.45;99316.16;6165852;23;48303;-89
2022/11/23 11:28:59;;;;;;;;;0.00;0.00;;;;;10.71;76.76;99309.88;6165241;23;45310;-89
2022/11/23 11:31:39;;;;;;;;;1.00;1.00;;;;;10.78;76.92;99327.22;6161886;23;45508;-87
2022/11/23 11:34:25;;;;;;;;;1.00;1.00;;;;;10.86;77.00;99326.16;6163550;23;44827;-90
2022/11/23 11:37:01;;;;;;;;;0.67;0.67;;;;;10.86;76.89;99336.69;6160474;23;47137;-85
2022/11/23 11:39:49;;;;;;;;;1.33;1.33;;;;;10.95;76.95;99337.28;6158623;23;45361;-84
2022/11/23 11:42:20;;;;;;;;;1.33;1.33;;;;;11.02;77.33;99323.03;6187907;23;45295;-85
2022/11/23 11:44:50;;;;;;;;;1.00;1.00;;;;;11.09;77.08;99320.22;6186705;23;45276;-85
2022/11/23 11:47:40;;;;;;;;;1.00;1.00;;;;;11.33;77.33;99332.69;6185743;23;45389;-85